createdAt,value
2018-03-26T00:00:22.231Z,60.90
2018-03-26T00:01:22.202Z,63.20
2018-03-26T00:02:22.173Z,61.00
2018-03-26T00:03:22.145Z,60.50
2018-03-26T00:04:22.117Z,61.50
2018-03-26T00:05:22.090Z,62.80
2018-03-26T00:06:22.060Z,64.20
2018-03-26T00:07:22.031Z,61.30
2018-03-26T00:08:22.004Z,63.10
2018-03-26T00:09:21.973Z,60.30
2018-03-26T00:10:21.947Z,63.10
2018-03-26T00:11:21.919Z,63.70
2018-03-26T00:12:21.888Z,64.80
2018-03-26T00:13:21.858Z,63.30
2018-03-26T00:14:21.832Z,62.50
2018-03-26T00:15:21.802Z,64.40
2018-03-26T00:16:21.772Z,65.90
2018-03-26T00:17:21.744Z,62.80
2018-03-26T00:18:21.716Z,62.00
2018-03-26T00:19:21.693Z,62.10
2018-03-26T00:20:21.659Z,63.20
2018-03-26T00:21:21.630Z,65.10
2018-03-26T00:22:21.601Z,63.60
2018-03-26T00:23:21.572Z,62.70
2018-03-26T00:24:21.544Z,63.30
2018-03-26T00:25:21.517Z,65.40
2018-03-26T00:26:21.488Z,63.30
2018-03-26T00:27:21.458Z,63.10
2018-03-26T00:28:21.429Z,64.90
2018-03-26T00:29:21.400Z,66.30
2018-03-26T00:30:21.373Z,64.30
2018-03-26T00:31:21.342Z,62.90
2018-03-26T00:32:21.315Z,64.60
2018-03-26T00:33:21.285Z,64.80
2018-03-26T00:34:21.256Z,65.80
2018-03-26T00:35:21.227Z,63.40
2018-03-26T00:36:21.199Z,65.50
2018-03-26T00:37:21.169Z,65.00
2018-03-26T00:38:21.141Z,62.70
2018-03-26T00:39:21.113Z,63.40
2018-03-26T00:40:21.084Z,64.80
2018-03-26T00:41:21.058Z,63.10
2018-03-26T00:42:21.028Z,63.80
2018-03-26T00:43:20.998Z,64.90
2018-03-26T00:44:20.968Z,65.50
2018-03-26T00:45:20.939Z,68.00
2018-03-26T00:46:20.911Z,71.90
2018-03-26T00:47:20.881Z,66.80
2018-03-26T00:48:20.854Z,67.40
2018-03-26T00:49:20.824Z,68.80
2018-03-26T00:50:20.799Z,67.90
2018-03-26T00:51:20.766Z,70.10
2018-03-26T00:52:20.746Z,72.00
2018-03-26T00:53:20.711Z,72.30
2018-03-26T00:54:20.681Z,66.00
2018-03-26T00:55:20.651Z,68.80
2018-03-26T00:56:20.623Z,72.40
2018-03-26T00:57:20.593Z,73.10
2018-03-26T00:58:20.564Z,73.70
2018-03-26T00:59:20.538Z,74.50
2018-03-26T01:00:20.520Z,70.00
2018-03-26T01:01:20.478Z,75.70
2018-03-26T01:02:20.449Z,77.50
2018-03-26T01:03:20.423Z,77.70
2018-03-26T01:04:20.396Z,75.30
2018-03-26T01:05:20.363Z,81.10
2018-03-26T01:06:20.336Z,82.10
2018-03-26T01:07:20.313Z,82.00
2018-03-26T01:08:20.278Z,84.60
2018-03-26T01:09:20.249Z,83.90
2018-03-26T01:10:20.219Z,82.80
2018-03-26T01:11:20.191Z,83.20
2018-03-26T01:12:20.162Z,83.40
2018-03-26T01:13:20.141Z,80.20
2018-03-26T01:14:20.104Z,80.60
2018-03-26T01:15:20.075Z,81.60
2018-03-26T01:16:20.047Z,80.50
2018-03-26T01:17:20.017Z,83.80
2018-03-26T01:18:19.991Z,79.50
2018-03-26T01:19:19.960Z,82.80
2018-03-26T01:20:19.932Z,80.70
2018-03-26T01:21:19.901Z,81.80
2018-03-26T01:22:19.873Z,81.60
2018-03-26T01:23:19.846Z,80.80
2018-03-26T01:24:19.815Z,81.20
2018-03-26T01:25:19.787Z,81.20
2018-03-26T01:26:19.757Z,80.00
2018-03-26T01:27:19.728Z,83.60
2018-03-26T01:28:19.699Z,78.90
2018-03-26T01:29:19.671Z,80.80
2018-03-26T01:30:19.651Z,79.70
2018-03-26T01:31:19.617Z,82.80
2018-03-26T01:32:19.585Z,80.30
2018-03-26T01:33:19.554Z,81.80
2018-03-26T01:34:19.527Z,79.30
2018-03-26T01:35:19.499Z,84.50
2018-03-26T01:36:19.488Z,82.80
2018-03-26T01:37:19.439Z,83.50
2018-03-26T01:38:19.412Z,81.50
2018-03-26T01:39:19.381Z,85.30
2018-03-26T01:40:19.355Z,82.40
2018-03-26T01:41:19.328Z,80.60
2018-03-26T01:42:19.295Z,85.00
2018-03-26T01:43:19.267Z,84.70
2018-03-26T01:44:19.238Z,85.20
2018-03-26T01:45:19.211Z,84.80
2018-03-26T01:46:19.181Z,82.50
2018-03-26T01:47:19.152Z,78.10
2018-03-26T01:48:19.122Z,84.20
2018-03-26T01:49:19.094Z,86.30
2018-03-26T01:50:19.064Z,87.80
2018-03-26T01:51:19.035Z,86.20
2018-03-26T01:52:19.006Z,90.10
2018-03-26T01:53:18.982Z,89.80
2018-03-26T01:54:18.947Z,86.90
2018-03-26T01:55:18.918Z,89.40
2018-03-26T01:56:18.890Z,88.30
2018-03-26T01:57:18.860Z,90.40
2018-03-26T01:58:18.831Z,84.40
2018-03-26T01:59:18.803Z,87.20
2018-03-26T02:00:18.776Z,86.60
2018-03-26T02:01:18.748Z,87.30
2018-03-26T02:02:18.715Z,87.90
2018-03-26T02:03:18.691Z,85.70
2018-03-26T02:04:18.657Z,83.40
2018-03-26T02:05:18.630Z,87.20
2018-03-26T02:06:18.598Z,83.10
2018-03-26T02:07:18.569Z,85.80
2018-03-26T02:08:18.541Z,86.80
2018-03-26T02:09:18.513Z,80.80
2018-03-26T02:10:18.481Z,83.40
2018-03-26T02:11:18.453Z,82.80
2018-03-26T02:12:18.424Z,79.90
2018-03-26T02:13:18.394Z,81.50
2018-03-26T02:14:18.365Z,81.50
2018-03-26T02:15:18.337Z,75.40
2018-03-26T02:16:18.310Z,73.80
2018-03-26T02:17:18.278Z,72.30
2018-03-26T02:18:18.249Z,70.30
2018-03-26T02:19:18.220Z,70.90
2018-03-26T02:20:18.200Z,64.30
2018-03-26T02:21:18.161Z,66.40
2018-03-26T02:22:18.132Z,69.00
2018-03-26T02:23:18.104Z,65.50
2018-03-26T02:24:18.076Z,68.00
2018-03-26T02:25:18.046Z,63.00
2018-03-26T02:26:18.016Z,68.10
2018-03-26T02:27:17.992Z,66.80
2018-03-26T02:28:17.963Z,64.70
2018-03-26T02:29:17.928Z,63.20
2018-03-26T02:30:17.906Z,64.70
2018-03-26T02:31:17.875Z,64.00
2018-03-26T02:32:17.843Z,68.70
2018-03-26T02:33:17.811Z,66.70
2018-03-26T02:34:17.782Z,66.00
2018-03-26T02:35:17.757Z,61.50
2018-03-26T02:36:17.724Z,61.10
2018-03-26T02:37:17.695Z,65.50
2018-03-26T02:38:17.674Z,62.70
2018-03-26T02:39:17.840Z,60.00
2018-03-26T02:40:17.812Z,62.60
2018-03-26T02:41:17.577Z,59.70
2018-03-26T02:42:17.549Z,60.30
2018-03-26T02:43:17.723Z,57.00
2018-03-26T02:44:17.694Z,56.00
2018-03-26T02:45:17.459Z,60.00
2018-03-26T02:46:17.431Z,54.50
2018-03-26T02:47:17.403Z,55.80
2018-03-26T02:48:17.372Z,57.00
2018-03-26T02:49:17.545Z,55.40
2018-03-26T02:50:17.313Z,54.60
2018-03-26T02:51:17.293Z,56.90
2018-03-26T02:52:17.254Z,54.60
2018-03-26T02:53:17.226Z,53.50
2018-03-26T02:54:17.195Z,52.70
2018-03-26T02:55:17.186Z,52.10
2018-03-26T02:56:17.137Z,53.00
2018-03-26T02:57:17.113Z,54.10
2018-03-26T02:58:17.077Z,54.50
2018-03-26T02:59:17.056Z,52.80
2018-03-26T03:00:17.021Z,56.70
2018-03-26T03:01:16.991Z,56.80
2018-03-26T03:02:16.961Z,57.20
2018-03-26T03:03:16.931Z,55.80
2018-03-26T03:04:16.901Z,53.70
2018-03-26T03:05:16.885Z,56.00
2018-03-26T03:06:16.844Z,55.60
2018-03-26T03:07:16.813Z,55.20
2018-03-26T03:08:16.782Z,57.40
2018-03-26T03:09:16.751Z,56.50
2018-03-26T03:10:16.723Z,57.20
2018-03-26T03:11:16.701Z,57.10
2018-03-26T03:12:16.668Z,55.90
2018-03-26T03:13:16.633Z,57.80
2018-03-26T03:14:16.604Z,56.30
2018-03-26T03:15:16.579Z,55.70
2018-03-26T03:16:16.546Z,54.80
2018-03-26T03:17:16.519Z,54.20
2018-03-26T03:18:16.497Z,56.40
2018-03-26T03:19:16.456Z,55.50
2018-03-26T03:20:16.427Z,56.10
2018-03-26T03:21:16.396Z,55.00
2018-03-26T03:22:16.375Z,56.00
2018-03-26T03:23:16.342Z,54.50
2018-03-26T03:24:16.308Z,56.60
2018-03-26T03:25:16.279Z,53.50
2018-03-26T03:26:16.249Z,49.70
2018-03-26T03:27:16.220Z,51.30
2018-03-26T03:28:16.191Z,52.50
2018-03-26T03:29:16.162Z,50.80
2018-03-26T03:30:16.133Z,48.50
2018-03-26T03:31:16.112Z,50.70
2018-03-26T03:32:16.072Z,52.00
2018-03-26T03:33:16.048Z,51.20
2018-03-26T03:34:16.013Z,49.60
2018-03-26T03:35:15.984Z,45.00
2018-03-26T03:36:15.954Z,44.60
2018-03-26T03:37:15.924Z,41.00
2018-03-26T03:38:15.896Z,41.00
2018-03-26T03:39:15.866Z,40.70
2018-03-26T03:40:15.836Z,38.20
2018-03-26T03:41:15.808Z,35.80
2018-03-26T03:42:15.777Z,36.50
2018-03-26T03:43:15.747Z,34.10
2018-03-26T03:44:15.720Z,35.80
2018-03-26T03:45:15.690Z,34.30
2018-03-26T03:46:15.664Z,34.50
2018-03-26T03:47:15.636Z,36.50
2018-03-26T03:48:15.599Z,36.00
2018-03-26T03:49:15.569Z,36.00
2018-03-26T03:50:15.546Z,35.40
2018-03-26T03:51:15.510Z,35.40
2018-03-26T03:52:15.483Z,36.10
2018-03-26T03:53:15.452Z,33.00
2018-03-26T03:54:15.421Z,33.10
2018-03-26T03:55:15.391Z,32.10
2018-03-26T03:56:15.362Z,33.10
2018-03-26T03:57:15.338Z,32.40
2018-03-26T03:58:15.304Z,32.40
2018-03-26T03:59:15.273Z,32.70
2018-03-26T04:00:15.243Z,31.70
2018-03-26T04:01:15.213Z,32.50
2018-03-26T04:02:15.182Z,30.30
2018-03-26T04:03:15.154Z,29.10
2018-03-26T04:04:15.124Z,27.00
2018-03-26T04:05:15.095Z,28.90
2018-03-26T04:06:15.066Z,27.10
2018-03-26T04:07:15.034Z,30.50
2018-03-26T04:08:15.004Z,31.10
2018-03-26T04:09:14.974Z,29.50
2018-03-26T04:10:14.949Z,29.10
2018-03-26T04:11:14.922Z,30.50
2018-03-26T04:12:14.889Z,29.40
2018-03-26T04:13:14.854Z,30.60
2018-03-26T04:14:14.824Z,30.00
2018-03-26T04:15:14.794Z,29.50
2018-03-26T04:16:14.765Z,30.50
2018-03-26T04:17:14.733Z,27.20
2018-03-26T04:18:14.705Z,30.90
2018-03-26T04:19:14.673Z,31.60
2018-03-26T04:20:14.644Z,31.10
2018-03-26T04:21:14.612Z,28.20
2018-03-26T04:22:14.716Z,29.60
2018-03-26T04:23:14.553Z,30.60
2018-03-26T04:24:14.523Z,32.40
2018-03-26T04:25:14.495Z,34.30
2018-03-26T04:26:14.462Z,37.30
2018-03-26T04:27:14.432Z,37.70
2018-03-26T04:28:14.403Z,36.80
2018-03-26T04:29:14.370Z,35.40
2018-03-26T04:30:14.342Z,33.10
2018-03-26T04:31:14.310Z,34.50
2018-03-26T04:32:14.279Z,33.20
2018-03-26T04:33:14.251Z,34.20
2018-03-26T04:34:14.218Z,33.70
2018-03-26T04:35:14.189Z,34.50
2018-03-26T04:36:14.158Z,31.40
2018-03-26T04:37:14.128Z,30.60
2018-03-26T04:38:14.097Z,29.70
2018-03-26T04:39:14.069Z,29.70
2018-03-26T04:40:14.036Z,29.70
2018-03-26T04:41:14.005Z,28.40
2018-03-26T04:42:13.976Z,29.90
2018-03-26T04:43:14.147Z,30.60
2018-03-26T04:44:13.916Z,30.40
2018-03-26T04:45:13.883Z,30.20
2018-03-26T04:46:13.853Z,34.10
2018-03-26T04:47:13.825Z,32.00
2018-03-26T04:48:13.793Z,32.10
2018-03-26T04:49:13.761Z,32.30
2018-03-26T04:50:13.749Z,32.30
2018-03-26T04:51:13.700Z,32.00
2018-03-26T04:52:13.671Z,34.70
2018-03-26T04:53:13.638Z,36.00
2018-03-26T04:54:13.638Z,34.20
2018-03-26T04:55:13.577Z,35.00
2018-03-26T04:56:13.547Z,37.20
2018-03-26T04:57:13.516Z,35.70
2018-03-26T04:58:13.485Z,35.60
2018-03-26T04:59:13.455Z,32.00
2018-03-26T05:00:13.425Z,32.60
2018-03-26T05:01:13.393Z,31.40
2018-03-26T05:02:13.378Z,30.10
2018-03-26T05:03:13.333Z,30.20
2018-03-26T05:04:13.303Z,28.50
2018-03-26T05:05:13.271Z,26.70
2018-03-26T05:06:13.242Z,29.90
2018-03-26T05:07:13.220Z,27.80
2018-03-26T05:08:13.184Z,28.40
2018-03-26T05:09:13.149Z,30.50
2018-03-26T05:10:13.119Z,29.80
2018-03-26T05:11:13.088Z,27.00
2018-03-26T05:12:13.064Z,31.10
2018-03-26T05:13:13.027Z,31.10
2018-03-26T05:14:12.997Z,33.60
2018-03-26T05:15:12.968Z,32.90
2018-03-26T05:16:12.938Z,34.10
2018-03-26T05:17:12.904Z,32.40
2018-03-26T05:18:12.874Z,31.90
2018-03-26T05:19:12.844Z,30.90
2018-03-26T05:20:12.813Z,28.70
2018-03-26T05:21:12.782Z,28.70
2018-03-26T05:22:12.751Z,28.70
2018-03-26T05:23:12.726Z,28.00
2018-03-26T05:24:12.690Z,27.70
2018-03-26T05:25:13.510Z,27.30
2018-03-26T05:26:12.630Z,27.30
2018-03-26T05:27:12.605Z,27.80
2018-03-26T05:28:12.568Z,26.20
2018-03-26T05:29:12.536Z,26.90
2018-03-26T05:30:12.506Z,25.70
2018-03-26T05:31:12.503Z,26.10
2018-03-26T05:32:12.445Z,22.70
2018-03-26T05:33:12.413Z,23.10
2018-03-26T05:34:12.383Z,23.20
2018-03-26T05:35:12.351Z,23.90
2018-03-26T05:36:12.322Z,22.30
2018-03-26T05:37:12.290Z,23.00
2018-03-26T05:38:12.267Z,22.00
2018-03-26T05:39:12.228Z,21.70
2018-03-26T05:40:12.201Z,22.90
2018-03-26T05:41:12.169Z,21.20
2018-03-26T05:42:12.136Z,21.90
2018-03-26T05:43:12.305Z,23.80
2018-03-26T05:44:12.076Z,24.00
2018-03-26T05:45:12.043Z,22.90
2018-03-26T05:46:12.014Z,22.20
2018-03-26T05:47:11.982Z,21.20
2018-03-26T05:48:11.951Z,22.10
2018-03-26T05:49:11.936Z,22.80
2018-03-26T05:50:11.889Z,21.60
2018-03-26T05:51:11.858Z,20.30
2018-03-26T05:52:11.895Z,20.40
2018-03-26T05:53:11.796Z,19.50
2018-03-26T05:54:11.768Z,18.60
2018-03-26T05:55:11.738Z,17.70
2018-03-26T05:56:11.713Z,18.70
2018-03-26T05:57:11.672Z,18.70
2018-03-26T05:58:11.643Z,19.30
2018-03-26T05:59:11.610Z,19.80
2018-03-26T06:00:11.581Z,19.70
2018-03-26T06:01:11.548Z,18.10
2018-03-26T06:02:11.538Z,19.70
2018-03-26T06:03:11.487Z,18.70
2018-03-26T06:04:11.457Z,19.20
2018-03-26T06:05:11.425Z,18.50
2018-03-26T06:06:11.398Z,18.00
2018-03-26T06:07:11.363Z,17.30
2018-03-26T06:08:11.336Z,16.10
2018-03-26T06:09:11.302Z,16.80
2018-03-26T06:10:11.270Z,16.80
2018-03-26T06:11:11.240Z,18.40
2018-03-26T06:12:11.213Z,16.30
2018-03-26T06:13:11.178Z,18.90
2018-03-26T06:14:11.149Z,18.30
2018-03-26T06:15:11.119Z,18.50
2018-03-26T06:16:11.087Z,20.70
2018-03-26T06:17:11.062Z,19.20
2018-03-26T06:18:11.023Z,17.00
2018-03-26T06:19:10.993Z,15.70
2018-03-26T06:20:10.961Z,17.70
2018-03-26T06:21:10.929Z,17.40
2018-03-26T06:22:10.898Z,17.80
2018-03-26T06:23:10.868Z,17.10
2018-03-26T06:24:10.837Z,17.60
2018-03-26T06:25:10.806Z,16.80
2018-03-26T06:26:10.774Z,19.30
2018-03-26T06:27:10.745Z,16.80
2018-03-26T06:28:10.713Z,19.00
2018-03-26T06:29:10.680Z,19.20
2018-03-26T06:30:10.650Z,16.60
2018-03-26T06:31:10.620Z,18.80
2018-03-26T06:32:10.588Z,17.60
2018-03-26T06:33:10.556Z,19.40
2018-03-26T06:34:10.525Z,19.30
2018-03-26T06:35:10.495Z,17.50
2018-03-26T06:36:10.464Z,16.10
2018-03-26T06:37:10.437Z,17.60
2018-03-26T06:38:10.401Z,16.70
2018-03-26T06:39:10.370Z,15.20
2018-03-26T06:40:10.355Z,15.90
2018-03-26T06:41:10.308Z,15.90
2018-03-26T06:42:10.277Z,15.90
2018-03-26T06:43:10.246Z,16.10
2018-03-26T06:44:10.245Z,15.50
2018-03-26T06:45:10.185Z,16.70
2018-03-26T06:46:10.153Z,15.20
2018-03-26T06:47:10.122Z,14.50
2018-03-26T06:48:10.093Z,15.50
2018-03-26T06:49:10.060Z,15.80
2018-03-26T06:50:10.029Z,16.20
2018-03-26T06:51:09.998Z,15.90
2018-03-26T06:52:09.968Z,15.30
2018-03-26T06:53:09.936Z,14.80
2018-03-26T06:54:09.905Z,15.60
2018-03-26T06:55:09.878Z,16.30
2018-03-26T06:56:09.844Z,14.70
2018-03-26T06:57:09.813Z,17.20
2018-03-26T06:58:09.785Z,17.00
2018-03-26T06:59:09.751Z,16.80
2018-03-26T07:00:09.727Z,16.30
2018-03-26T07:01:09.694Z,15.90
2018-03-26T07:02:09.658Z,15.30
2018-03-26T07:03:09.628Z,13.60
2018-03-26T07:04:09.601Z,12.40
2018-03-26T07:05:09.566Z,11.40
2018-03-26T07:06:09.536Z,10.10
2018-03-26T07:07:09.505Z,10.40
2018-03-26T07:08:09.474Z,11.70
2018-03-26T07:09:09.445Z,11.00
2018-03-26T07:10:09.411Z,10.60
2018-03-26T07:11:09.382Z,9.90
2018-03-26T07:12:09.352Z,10.10
2018-03-26T07:13:09.321Z,9.40
2018-03-26T07:14:09.306Z,9.20
2018-03-26T07:15:09.258Z,9.10
2018-03-26T07:16:09.231Z,9.30
2018-03-26T07:17:09.196Z,9.10
2018-03-26T07:18:09.167Z,8.30
2018-03-26T07:19:09.135Z,8.90
2018-03-26T07:20:09.106Z,9.30
2018-03-26T07:21:09.073Z,9.40
2018-03-26T07:22:09.043Z,9.50
2018-03-26T07:23:09.018Z,9.30
2018-03-26T07:24:08.983Z,9.50
2018-03-26T07:25:08.953Z,10.00
2018-03-26T07:26:08.920Z,10.10
2018-03-26T07:27:08.890Z,10.50
2018-03-26T07:28:08.859Z,10.30
2018-03-26T07:29:08.829Z,10.40
2018-03-26T07:30:08.797Z,9.80
2018-03-26T07:31:08.766Z,10.40
2018-03-26T07:32:08.737Z,10.40
2018-03-26T07:33:08.706Z,10.50
2018-03-26T07:34:08.674Z,10.20
2018-03-26T07:35:08.644Z,10.30
2018-03-26T07:36:08.614Z,11.20
2018-03-26T07:37:08.583Z,10.60
2018-03-26T07:38:08.553Z,11.20
2018-03-26T07:39:08.523Z,10.90
2018-03-26T07:40:08.493Z,9.90
2018-03-26T07:41:08.472Z,10.10
2018-03-26T07:42:08.436Z,10.20
2018-03-26T07:43:08.401Z,9.70
2018-03-26T07:44:08.371Z,10.30
2018-03-26T07:45:08.340Z,9.50
2018-03-26T07:46:08.310Z,8.80
2018-03-26T07:47:08.280Z,9.10
2018-03-26T07:48:08.250Z,8.80
2018-03-26T07:49:08.219Z,8.20
2018-03-26T07:50:08.196Z,8.40
2018-03-26T07:51:08.163Z,8.40
2018-03-26T07:52:08.382Z,8.70
2018-03-26T07:53:08.104Z,8.10
2018-03-26T07:54:08.069Z,7.50
2018-03-26T07:55:08.057Z,8.30
2018-03-26T07:56:08.033Z,8.50
2018-03-26T07:57:07.979Z,7.90
2018-03-26T07:58:07.949Z,8.90
2018-03-26T07:59:07.919Z,9.10
2018-03-26T08:00:07.900Z,8.50
2018-03-26T08:01:07.860Z,9.10
2018-03-26T08:02:07.829Z,8.40
2018-03-26T08:03:07.799Z,8.80
2018-03-26T08:04:07.769Z,9.70
2018-03-26T08:05:07.760Z,8.70
2018-03-26T08:06:07.727Z,8.40
2018-03-26T08:07:07.680Z,8.40
2018-03-26T08:08:07.649Z,9.20
2018-03-26T08:09:07.620Z,9.40
2018-03-26T08:10:07.589Z,9.20
2018-03-26T08:11:07.559Z,10.10
2018-03-26T08:12:07.530Z,9.10
2018-03-26T08:13:07.499Z,8.60
2018-03-26T08:14:07.469Z,8.70
2018-03-26T08:15:07.439Z,9.10
2018-03-26T08:16:07.436Z,8.70
2018-03-26T08:17:07.481Z,9.60
2018-03-26T08:18:07.351Z,9.60
2018-03-26T08:19:07.331Z,8.90
2018-03-26T08:20:07.292Z,9.70
2018-03-26T08:21:07.261Z,10.20
2018-03-26T08:22:07.244Z,11.00
2018-03-26T08:23:07.206Z,10.40
2018-03-26T08:24:07.173Z,9.60
2018-03-26T08:25:07.146Z,9.80
2018-03-26T08:26:07.121Z,9.10
2018-03-26T08:27:07.082Z,7.90
2018-03-26T08:28:07.058Z,9.50
2018-03-26T08:29:07.023Z,9.50
2018-03-26T08:30:06.995Z,8.90
2018-03-26T08:31:06.972Z,7.80
2018-03-26T08:32:06.934Z,7.70
2018-03-26T08:33:06.956Z,8.40
2018-03-26T08:34:06.876Z,8.90
2018-03-26T08:35:06.862Z,8.50
2018-03-26T08:36:06.820Z,7.70
2018-03-26T08:37:06.785Z,7.60
2018-03-26T08:38:06.761Z,7.40
2018-03-26T08:39:06.727Z,6.50
2018-03-26T08:40:06.699Z,7.80
2018-03-26T08:41:06.685Z,7.90
2018-03-26T08:42:06.638Z,7.60
2018-03-26T08:43:06.608Z,7.90
2018-03-26T08:44:06.579Z,8.80
2018-03-26T08:45:06.553Z,9.00
2018-03-26T08:46:06.520Z,9.00
2018-03-26T08:47:06.489Z,8.60
2018-03-26T08:48:06.459Z,8.50
2018-03-26T08:49:06.430Z,8.30
2018-03-26T08:50:06.515Z,8.30
2018-03-26T08:51:06.425Z,8.70
2018-03-26T08:52:06.341Z,8.10
2018-03-26T08:53:06.327Z,8.60
2018-03-26T08:54:06.281Z,8.40
2018-03-26T08:55:06.253Z,8.50
2018-03-26T08:56:06.222Z,8.70
2018-03-26T08:57:06.194Z,9.30
2018-03-26T08:58:06.163Z,9.40
2018-03-26T08:59:06.174Z,9.00
2018-03-26T09:00:06.104Z,9.10
2018-03-26T09:01:06.074Z,9.10
2018-03-26T09:02:06.053Z,9.20
2018-03-26T09:03:06.018Z,9.20
2018-03-26T09:04:05.986Z,9.60
2018-03-26T09:05:05.955Z,9.70
2018-03-26T09:06:05.925Z,8.20
2018-03-26T09:07:05.897Z,8.40
2018-03-26T09:08:05.869Z,9.30
2018-03-26T09:09:05.837Z,7.90
2018-03-26T09:10:05.814Z,7.90
2018-03-26T09:11:05.781Z,8.40
2018-03-26T09:12:05.766Z,8.10
2018-03-26T09:13:05.725Z,7.80
2018-03-26T09:14:05.690Z,8.50
2018-03-26T09:15:05.679Z,9.30
2018-03-26T09:16:05.641Z,8.60
2018-03-26T09:17:05.621Z,8.60
2018-03-26T09:18:05.581Z,9.70
2018-03-26T09:19:05.558Z,9.70
2018-03-26T09:20:05.515Z,9.30
2018-03-26T09:21:05.485Z,9.90
2018-03-26T09:22:05.456Z,10.70
2018-03-26T09:23:05.426Z,9.70
2018-03-26T09:24:05.397Z,9.80
2018-03-26T09:25:05.438Z,10.10
2018-03-26T09:26:05.352Z,11.20
2018-03-26T09:27:05.316Z,9.50
2018-03-26T09:28:05.336Z,10.60
2018-03-26T09:29:05.257Z,10.00
2018-03-26T09:30:05.220Z,10.00
2018-03-26T09:31:05.191Z,8.80
2018-03-26T09:32:05.162Z,8.90
2018-03-26T09:33:05.136Z,8.40
2018-03-26T09:34:05.103Z,9.00
2018-03-26T09:35:05.080Z,9.10
2018-03-26T09:36:05.044Z,9.10
2018-03-26T09:37:05.014Z,8.70
2018-03-26T09:38:04.993Z,7.80
2018-03-26T09:39:04.983Z,8.80
2018-03-26T09:40:04.943Z,9.10
2018-03-26T09:41:04.916Z,8.30
2018-03-26T09:42:04.895Z,8.00
2018-03-26T09:43:04.922Z,8.00
2018-03-26T09:44:04.837Z,7.20
2018-03-26T09:45:04.795Z,7.40
2018-03-26T09:46:04.749Z,7.80
2018-03-26T09:47:04.719Z,7.40
2018-03-26T09:48:04.718Z,7.00
2018-03-26T09:49:04.660Z,7.10
2018-03-26T09:50:04.643Z,6.50
2018-03-26T09:51:04.602Z,6.20
2018-03-26T09:52:04.581Z,5.80
2018-03-26T09:53:04.542Z,5.80
2018-03-26T09:54:04.513Z,5.80
2018-03-26T09:55:04.485Z,6.50
2018-03-26T09:56:04.457Z,6.50
2018-03-26T09:57:04.425Z,6.50
2018-03-26T09:58:04.395Z,7.50
2018-03-26T09:59:04.366Z,6.30
2018-03-26T10:00:04.350Z,7.00
2018-03-26T10:01:04.309Z,6.80
2018-03-26T10:02:04.285Z,8.20
2018-03-26T10:03:04.258Z,8.80
2018-03-26T10:04:04.223Z,8.30
2018-03-26T10:05:04.189Z,8.50
2018-03-26T10:06:04.172Z,9.00
2018-03-26T10:07:04.131Z,9.10
2018-03-26T10:08:04.102Z,9.90
2018-03-26T10:09:04.072Z,10.40
2018-03-26T10:10:04.042Z,10.00
2018-03-26T10:11:04.014Z,10.80
2018-03-26T10:12:03.984Z,10.40
2018-03-26T10:13:03.955Z,11.40
2018-03-26T10:14:03.926Z,10.80
2018-03-26T10:15:03.905Z,8.80
2018-03-26T10:16:03.872Z,10.30
2018-03-26T10:17:03.841Z,10.80
2018-03-26T10:18:03.809Z,11.10
2018-03-26T10:19:03.784Z,11.50
2018-03-26T10:20:03.754Z,11.20
2018-03-26T10:21:03.723Z,11.20
2018-03-26T10:22:03.694Z,12.20
2018-03-26T10:23:03.663Z,11.80
2018-03-26T10:24:03.641Z,12.10
2018-03-26T10:25:03.604Z,12.60
2018-03-26T10:26:03.579Z,11.50
2018-03-26T10:27:03.547Z,11.20
2018-03-26T10:28:03.522Z,10.50
2018-03-26T10:29:03.487Z,11.20
2018-03-26T10:30:03.462Z,11.00
2018-03-26T10:31:03.430Z,11.00
2018-03-26T10:32:03.402Z,11.40
2018-03-26T10:33:03.372Z,9.00
2018-03-26T10:34:03.342Z,9.50
2018-03-26T10:35:03.315Z,10.20
2018-03-26T10:36:03.289Z,10.50
2018-03-26T10:37:03.255Z,10.00
2018-03-26T10:38:03.228Z,8.80
2018-03-26T10:39:03.197Z,8.90
2018-03-26T10:40:03.171Z,8.00
2018-03-26T10:41:03.139Z,7.90
2018-03-26T10:42:03.109Z,8.50
2018-03-26T10:43:03.081Z,7.90
2018-03-26T10:44:03.054Z,8.20
2018-03-26T10:45:03.023Z,7.20
2018-03-26T10:46:03.013Z,7.70
2018-03-26T10:47:02.965Z,8.00
2018-03-26T10:48:02.943Z,7.90
2018-03-26T10:49:02.909Z,7.80
2018-03-26T10:50:02.883Z,8.30
2018-03-26T10:51:02.910Z,12.60
2018-03-26T10:52:02.830Z,11.30
2018-03-26T10:53:02.792Z,11.40
2018-03-26T10:54:02.766Z,9.90
2018-03-26T10:55:02.735Z,8.80
2018-03-26T10:56:02.710Z,8.20
2018-03-26T10:57:02.677Z,7.80
2018-03-26T10:58:02.657Z,8.20
2018-03-26T10:59:02.619Z,7.40
2018-03-26T11:00:02.591Z,7.80
2018-03-26T11:01:02.566Z,7.00
2018-03-26T11:02:02.533Z,7.60
2018-03-26T11:03:02.504Z,7.50
2018-03-26T11:04:02.476Z,6.90
2018-03-26T11:05:02.446Z,6.70
2018-03-26T11:06:02.419Z,6.00
2018-03-26T11:07:02.388Z,5.90
2018-03-26T11:08:02.360Z,6.10
2018-03-26T11:09:02.332Z,6.00
2018-03-26T11:10:02.309Z,6.70
2018-03-26T11:11:02.295Z,6.20
2018-03-26T11:12:02.254Z,6.50
2018-03-26T11:13:02.215Z,6.80
2018-03-26T11:14:02.198Z,6.50
2018-03-26T11:15:02.167Z,6.50
2018-03-26T11:16:02.132Z,6.40
2018-03-26T11:17:02.101Z,6.40
2018-03-26T11:18:02.072Z,5.90
2018-03-26T11:19:02.045Z,5.50
2018-03-26T11:20:02.015Z,5.40
2018-03-26T11:21:01.985Z,5.90
2018-03-26T11:22:01.957Z,6.20
2018-03-26T11:23:01.930Z,6.30
2018-03-26T11:24:01.900Z,6.40
2018-03-26T11:25:01.874Z,6.70
2018-03-26T11:26:01.844Z,6.80
2018-03-26T11:27:01.814Z,6.00
2018-03-26T11:28:01.839Z,6.80
2018-03-26T11:29:01.756Z,6.80
2018-03-26T11:30:01.728Z,6.50
2018-03-26T11:31:01.701Z,6.40
2018-03-26T11:32:01.671Z,7.30
2018-03-26T11:33:01.641Z,7.30
2018-03-26T11:34:01.617Z,7.60
2018-03-26T11:35:01.585Z,7.30
2018-03-26T11:36:01.567Z,7.70
2018-03-26T11:37:01.526Z,7.70
2018-03-26T11:38:01.497Z,8.10
2018-03-26T11:39:01.470Z,8.60
2018-03-26T11:40:01.441Z,7.50
2018-03-26T11:41:01.412Z,7.60
2018-03-26T11:42:01.383Z,8.40
2018-03-26T11:43:01.364Z,8.50
2018-03-26T11:44:01.328Z,7.90
2018-03-26T11:45:01.505Z,8.00
2018-03-26T11:46:01.312Z,8.70
2018-03-26T11:47:01.252Z,8.20
2018-03-26T11:48:01.214Z,8.70
2018-03-26T11:49:01.226Z,7.90
2018-03-26T11:50:01.158Z,8.70
2018-03-26T11:51:01.172Z,8.40
2018-03-26T11:52:01.129Z,8.40
2018-03-26T11:53:01.074Z,8.80
2018-03-26T11:54:01.069Z,9.00
2018-03-26T11:55:01.020Z,9.30
2018-03-26T11:56:01.002Z,9.00
2018-03-26T11:57:00.968Z,8.60
2018-03-26T11:58:00.967Z,9.10
2018-03-26T11:59:00.928Z,8.90
2018-03-26T12:00:00.915Z,9.00
2018-03-26T12:01:00.865Z,9.40
2018-03-26T12:02:00.832Z,9.00
2018-03-26T12:03:00.807Z,8.70
2018-03-26T12:04:00.774Z,8.60
2018-03-26T12:05:00.746Z,8.70
2018-03-26T12:06:00.754Z,8.50
2018-03-26T12:07:00.694Z,8.00
2018-03-26T12:08:00.697Z,8.10
2018-03-26T12:09:00.653Z,9.10
2018-03-26T12:10:00.613Z,8.60
2018-03-26T12:11:00.584Z,9.00
2018-03-26T12:12:00.556Z,9.20
2018-03-26T12:13:00.541Z,9.20
2018-03-26T12:14:00.505Z,9.70
2018-03-26T12:15:00.487Z,9.00
2018-03-26T12:16:00.491Z,8.40
2018-03-26T12:17:00.425Z,8.40
2018-03-26T12:18:00.430Z,7.40
2018-03-26T12:19:00.369Z,7.00
2018-03-26T12:20:00.345Z,7.90
2018-03-26T12:21:00.311Z,7.20
2018-03-26T12:22:00.284Z,7.10
2018-03-26T12:23:00.260Z,7.70
2018-03-26T12:24:00.231Z,7.20
2018-03-26T12:25:00.206Z,6.60
2018-03-26T12:26:00.185Z,7.20
2018-03-26T12:27:00.150Z,7.30
2018-03-26T12:28:00.121Z,7.50
2018-03-26T12:29:00.098Z,7.30
2018-03-26T12:30:00.066Z,7.50
2018-03-26T12:31:00.040Z,8.20
2018-03-26T12:32:00.015Z,8.20
2018-03-26T12:32:59.989Z,8.40
2018-03-26T12:33:59.958Z,8.40
2018-03-26T12:34:59.935Z,8.50
2018-03-26T12:35:59.959Z,8.90
2018-03-26T12:36:59.878Z,8.20
2018-03-26T12:37:59.850Z,8.50
2018-03-26T12:38:59.828Z,8.40
2018-03-26T12:39:59.815Z,8.60
2018-03-26T12:40:59.769Z,7.70
2018-03-26T12:41:59.743Z,8.20
2018-03-26T12:42:59.716Z,7.50
2018-03-26T12:43:59.700Z,7.90
2018-03-26T12:44:59.665Z,7.40
2018-03-26T12:45:59.637Z,7.70
2018-03-26T12:46:59.610Z,7.60
2018-03-26T12:47:59.583Z,7.60
2018-03-26T12:48:59.556Z,7.80
2018-03-26T12:49:59.532Z,7.60
2018-03-26T12:50:59.507Z,8.10
2018-03-26T12:51:59.477Z,7.70
2018-03-26T12:52:59.450Z,7.00
2018-03-26T12:53:59.424Z,7.30
2018-03-26T12:54:59.402Z,6.80
2018-03-26T12:55:59.370Z,7.10
2018-03-26T12:56:59.343Z,7.00
2018-03-26T12:57:59.316Z,5.80
2018-03-26T12:58:59.300Z,6.20
2018-03-26T12:59:59.277Z,5.90
2018-03-26T13:00:59.236Z,6.70
2018-03-26T13:01:59.211Z,6.20